sensor_id;sensor_type;location;lat;lon;timestamp;pressure;altitude;pressure_sealevel;temperature;humidity
10518;BME280;5307;42.548;22.968;2022-07-29T00:00:17;94025.44;;;18.35;100.00
10518;BME280;5307;42.548;22.968;2022-07-29T00:02:44;94032.41;;;18.25;100.00
10518;BME280;5307;42.548;22.968;2022-07-29T00:05:12;94017.72;;;18.08;100.00
10518;BME280;5307;42.548;22.968;2022-07-29T00:07:39;94028.13;;;18.19;100.00
10518;BME280;5307;42.548;22.968;2022-07-29T00:10:07;94023.75;;;18.06;100.00
10518;BME280;5307;42.548;22.968;2022-07-29T00:12:34;94021.00;;;18.06;100.00
10518;BME280;5307;42.548;22.968;2022-07-29T00:15:01;94014.56;;;18.21;100.00
10518;BME280;5307;42.548;22.968;2022-07-29T00:17:28;94020.69;;;18.36;100.00
10518;BME280;5307;42.548;22.968;2022-07-29T00:19:55;94019.19;;;18.40;100.00
10518;BME280;5307;42.548;22.968;2022-07-29T00:22:23;94009.63;;;18.42;100.00
10518;BME280;5307;42.548;22.968;2022-07-29T00:24:50;94012.88;;;18.34;100.00
10518;BME280;5307;42.548;22.968;2022-07-29T00:27:17;94018.41;;;18.34;100.00
10518;BME280;5307;42.548;22.968;2022-07-29T00:29:44;94017.69;;;18.39;100.00
10518;BME280;5307;42.548;22.968;2022-07-29T00:32:11;94006.16;;;18.47;100.00
10518;BME280;5307;42.548;22.968;2022-07-29T00:34:38;94011.88;;;18.37;100.00
10518;BME280;5307;42.548;22.968;2022-07-29T00:37:23;94015.41;;;18.38;100.00
10518;BME280;5307;42.548;22.968;2022-07-29T00:39:50;94002.75;;;18.20;100.00
10518;BME280;5307;42.548;22.968;2022-07-29T00:42:17;94007.31;;;17.92;100.00
10518;BME280;5307;42.548;22.968;2022-07-29T00:44:43;94006.75;;;17.56;100.00
10518;BME280;5307;42.548;22.968;2022-07-29T00:47:11;94003.25;;;17.87;100.00
10518;BME280;5307;42.548;22.968;2022-07-29T00:49:40;93996.19;;;17.80;100.00
10518;BME280;5307;42.548;22.968;2022-07-29T00:52:08;94005.59;;;18.00;100.00
10518;BME280;5307;42.548;22.968;2022-07-29T00:54:38;94007.06;;;17.90;100.00
10518;BME280;5307;42.548;22.968;2022-07-29T00:57:06;94004.56;;;17.92;100.00
10518;BME280;5307;42.548;22.968;2022-07-29T00:59:33;94009.56;;;17.88;100.00
10518;BME280;5307;42.548;22.968;2022-07-29T01:02:00;93998.66;;;18.10;100.00
10518;BME280;5307;42.548;22.968;2022-07-29T01:04:27;93997.03;;;17.92;100.00
10518;BME280;5307;42.548;22.968;2022-07-29T01:06:55;94008.66;;;18.02;100.00
10518;BME280;5307;42.548;22.968;2022-07-29T01:09:22;94005.34;;;17.98;100.00
10518;BME280;5307;42.548;22.968;2022-07-29T01:11:51;94008.00;;;17.87;100.00
10518;BME280;5307;42.548;22.968;2022-07-29T01:14:18;94004.47;;;17.80;100.00
10518;BME280;5307;42.548;22.968;2022-07-29T01:16:51;94001.47;;;17.84;100.00
10518;BME280;5307;42.548;22.968;2022-07-29T01:19:33;94000.38;;;18.02;100.00
10518;BME280;5307;42.548;22.968;2022-07-29T01:22:27;94002.03;;;17.88;100.00
10518;BME280;5307;42.548;22.968;2022-07-29T01:25:41;94015.41;;;17.69;100.00
10518;BME280;5307;42.548;22.968;2022-07-29T01:31:16;94009.09;;;17.95;100.00
10518;BME280;5307;42.548;22.968;2022-07-29T01:33:48;94006.63;;;17.71;100.00
10518;BME280;5307;42.548;22.968;2022-07-29T01:36:19;94008.38;;;17.68;100.00
10518;BME280;5307;42.548;22.968;2022-07-29T01:38:58;93992.88;;;17.76;100.00
10518;BME280;5307;42.548;22.968;2022-07-29T01:41:28;93995.44;;;17.86;100.00
10518;BME280;5307;42.548;22.968;2022-07-29T01:44:01;93995.09;;;17.72;100.00
10518;BME280;5307;42.548;22.968;2022-07-29T01:46:33;93996.09;;;17.69;100.00
10518;BME280;5307;42.548;22.968;2022-07-29T01:49:06;93997.34;;;17.68;100.00
10518;BME280;5307;42.548;22.968;2022-07-29T01:51:40;93990.06;;;17.71;100.00
10518;BME280;5307;42.548;22.968;2022-07-29T01:54:12;93985.91;;;17.87;100.00
10518;BME280;5307;42.548;22.968;2022-07-29T01:56:42;93987.66;;;17.58;100.00
10518;BME280;5307;42.548;22.968;2022-07-29T01:59:10;93983.41;;;17.57;100.00
10518;BME280;5307;42.548;22.968;2022-07-29T02:01:40;93984.75;;;17.67;100.00
10518;BME280;5307;42.548;22.968;2022-07-29T02:04:10;93984.38;;;17.80;100.00
10518;BME280;5307;42.548;22.968;2022-07-29T02:06:38;93991.91;;;17.79;100.00
10518;BME280;5307;42.548;22.968;2022-07-29T02:09:08;93990.56;;;17.69;100.00
10518;BME280;5307;42.548;22.968;2022-07-29T02:11:37;93977.84;;;17.51;100.00
10518;BME280;5307;42.548;22.968;2022-07-29T02:14:05;93979.81;;;17.45;100.00
10518;BME280;5307;42.548;22.968;2022-07-29T02:16:35;93980.75;;;17.68;100.00
10518;BME280;5307;42.548;22.968;2022-07-29T02:19:06;93983.88;;;17.82;100.00
10518;BME280;5307;42.548;22.968;2022-07-29T02:21:35;93977.28;;;17.73;100.00
10518;BME280;5307;42.548;22.968;2022-07-29T02:24:03;93975.06;;;17.51;100.00
10518;BME280;5307;42.548;22.968;2022-07-29T02:26:32;93982.06;;;17.47;100.00
10518;BME280;5307;42.548;22.968;2022-07-29T02:29:01;93976.19;;;17.34;100.00
10518;BME280;5307;42.548;22.968;2022-07-29T02:31:32;93975.47;;;17.39;100.00
10518;BME280;5307;42.548;22.968;2022-07-29T02:34:01;93977.59;;;17.55;100.00
10518;BME280;5307;42.548;22.968;2022-07-29T02:36:30;93978.22;;;17.39;100.00
10518;BME280;5307;42.548;22.968;2022-07-29T02:38:58;93974.38;;;17.31;100.00
10518;BME280;5307;42.548;22.968;2022-07-29T02:41:29;93960.31;;;17.03;100.00
10518;BME280;5307;42.548;22.968;2022-07-29T02:44:05;93977.72;;;17.14;100.00
10518;BME280;5307;42.548;22.968;2022-07-29T02:46:35;93968.69;;;17.40;100.00
10518;BME280;5307;42.548;22.968;2022-07-29T02:49:09;93974.81;;;17.24;100.00
10518;BME280;5307;42.548;22.968;2022-07-29T02:51:42;93974.22;;;17.40;100.00
10518;BME280;5307;42.548;22.968;2022-07-29T02:54:11;93966.53;;;17.24;100.00
10518;BME280;5307;42.548;22.968;2022-07-29T02:56:42;93970.03;;;17.18;100.00
10518;BME280;5307;42.548;22.968;2022-07-29T02:59:11;93978.19;;;17.07;100.00
10518;BME280;5307;42.548;22.968;2022-07-29T03:01:42;93976.94;;;17.08;100.00
10518;BME280;5307;42.548;22.968;2022-07-29T03:04:11;93985.09;;;17.23;100.00
10518;BME280;5307;42.548;22.968;2022-07-29T03:06:41;93981.22;;;17.09;100.00
10518;BME280;5307;42.548;22.968;2022-07-29T03:09:10;93981.41;;;16.80;100.00
10518;BME280;5307;42.548;22.968;2022-07-29T03:11:38;93977.91;;;17.31;100.00
10518;BME280;5307;42.548;22.968;2022-07-29T03:14:05;93979.63;;;17.29;100.00
10518;BME280;5307;42.548;22.968;2022-07-29T03:16:33;93973.41;;;17.34;100.00
10518;BME280;5307;42.548;22.968;2022-07-29T03:19:02;93977.47;;;17.12;100.00
10518;BME280;5307;42.548;22.968;2022-07-29T03:21:29;93968.00;;;17.19;100.00
10518;BME280;5307;42.548;22.968;2022-07-29T03:23:58;93978.34;;;17.24;100.00
10518;BME280;5307;42.548;22.968;2022-07-29T03:26:25;93986.47;;;17.07;100.00
10518;BME280;5307;42.548;22.968;2022-07-29T03:28:52;93991.88;;;17.22;100.00
10518;BME280;5307;42.548;22.968;2022-07-29T03:31:19;93992.66;;;17.02;100.00
10518;BME280;5307;42.548;22.968;2022-07-29T03:33:46;93988.56;;;16.92;100.00
10518;BME280;5307;42.548;22.968;2022-07-29T03:36:13;93984.13;;;17.00;100.00
10518;BME280;5307;42.548;22.968;2022-07-29T03:38:41;93984.34;;;17.23;100.00
10518;BME280;5307;42.548;22.968;2022-07-29T03:41:11;93978.06;;;17.22;100.00
10518;BME280;5307;42.548;22.968;2022-07-29T03:43:40;93980.66;;;17.05;100.00
10518;BME280;5307;42.548;22.968;2022-07-29T03:46:09;93988.38;;;17.01;100.00
10518;BME280;5307;42.548;22.968;2022-07-29T03:48:39;93981.53;;;16.91;100.00
10518;BME280;5307;42.548;22.968;2022-07-29T03:51:08;93989.13;;;17.02;100.00
10518;BME280;5307;42.548;22.968;2022-07-29T03:53:35;93989.97;;;17.08;100.00
10518;BME280;5307;42.548;22.968;2022-07-29T03:56:03;93993.38;;;16.97;100.00
10518;BME280;5307;42.548;22.968;2022-07-29T03:58:33;93991.72;;;17.05;100.00
10518;BME280;5307;42.548;22.968;2022-07-29T04:01:01;94001.78;;;17.08;100.00
10518;BME280;5307;42.548;22.968;2022-07-29T04:03:28;94001.28;;;17.10;100.00
10518;BME280;5307;42.548;22.968;2022-07-29T04:05:59;93984.00;;;17.15;100.00
10518;BME280;5307;42.548;22.968;2022-07-29T04:08:26;94000.78;;;17.11;100.00
10518;BME280;5307;42.548;22.968;2022-07-29T04:10:53;94001.97;;;17.31;100.00
10518;BME280;5307;42.548;22.968;2022-07-29T04:13:20;93994.84;;;17.18;100.00
10518;BME280;5307;42.548;22.968;2022-07-29T04:15:48;93996.09;;;17.17;100.00
10518;BME280;5307;42.548;22.968;2022-07-29T04:18:15;93987.72;;;17.32;100.00
10518;BME280;5307;42.548;22.968;2022-07-29T04:20:42;93990.06;;;17.45;100.00
10518;BME280;5307;42.548;22.968;2022-07-29T04:23:09;93994.28;;;17.40;100.00
10518;BME280;5307;42.548;22.968;2022-07-29T04:25:37;93992.91;;;17.50;100.00
10518;BME280;5307;42.548;22.968;2022-07-29T04:28:04;93993.63;;;17.45;100.00
10518;BME280;5307;42.548;22.968;2022-07-29T04:30:32;93996.03;;;17.64;100.00
10518;BME280;5307;42.548;22.968;2022-07-29T04:33:03;93998.41;;;17.50;100.00
10518;BME280;5307;42.548;22.968;2022-07-29T04:35:31;94002.31;;;17.64;100.00
10518;BME280;5307;42.548;22.968;2022-07-29T04:38:00;93999.16;;;17.77;100.00
10518;BME280;5307;42.548;22.968;2022-07-29T04:40:27;94011.09;;;17.94;100.00
10518;BME280;5307;42.548;22.968;2022-07-29T04:42:54;94000.84;;;18.00;100.00
10518;BME280;5307;42.548;22.968;2022-07-29T04:45:21;94000.81;;;17.95;100.00
10518;BME280;5307;42.548;22.968;2022-07-29T04:47:47;94006.22;;;18.15;100.00
10518;BME280;5307;42.548;22.968;2022-07-29T04:50:16;94005.44;;;18.15;100.00
10518;BME280;5307;42.548;22.968;2022-07-29T04:52:43;93999.97;;;18.20;100.00
10518;BME280;5307;42.548;22.968;2022-07-29T04:55:10;94000.75;;;18.26;100.00
10518;BME280;5307;42.548;22.968;2022-07-29T04:57:36;93987.44;;;18.25;100.00
10518;BME280;5307;42.548;22.968;2022-07-29T05:00:05;93995.28;;;18.37;100.00
10518;BME280;5307;42.548;22.968;2022-07-29T05:02:32;93996.88;;;18.50;100.00
10518;BME280;5307;42.548;22.968;2022-07-29T05:04:59;93994.84;;;18.45;100.00
10518;BME280;5307;42.548;22.968;2022-07-29T05:07:27;93996.56;;;18.42;100.00
10518;BME280;5307;42.548;22.968;2022-07-29T05:09:54;94008.72;;;18.56;100.00
10518;BME280;5307;42.548;22.968;2022-07-29T05:12:22;94013.28;;;18.59;100.00
10518;BME280;5307;42.548;22.968;2022-07-29T05:14:49;94001.78;;;18.72;100.00
10518;BME280;5307;42.548;22.968;2022-07-29T05:17:16;94006.44;;;18.49;100.00
10518;BME280;5307;42.548;22.968;2022-07-29T05:19:43;94014.06;;;18.65;100.00
10518;BME280;5307;42.548;22.968;2022-07-29T05:22:09;94006.06;;;18.73;99.76
10518;BME280;5307;42.548;22.968;2022-07-29T05:24:38;94009.09;;;18.75;100.00
10518;BME280;5307;42.548;22.968;2022-07-29T05:27:04;94011.81;;;18.69;100.00
10518;BME280;5307;42.548;22.968;2022-07-29T05:29:31;94012.06;;;18.71;100.00
10518;BME280;5307;42.548;22.968;2022-07-29T05:31:58;94013.22;;;18.48;100.00
10518;BME280;5307;42.548;22.968;2022-07-29T05:34:25;94010.16;;;18.88;100.00
10518;BME280;5307;42.548;22.968;2022-07-29T05:36:52;94026.44;;;18.75;100.00
10518;BME280;5307;42.548;22.968;2022-07-29T05:39:18;94014.84;;;18.71;100.00
10518;BME280;5307;42.548;22.968;2022-07-29T05:41:47;94020.22;;;18.91;99.10
10518;BME280;5307;42.548;22.968;2022-07-29T05:44:14;94026.06;;;19.10;99.19
10518;BME280;5307;42.548;22.968;2022-07-29T05:46:40;94028.75;;;19.64;97.39
10518;BME280;5307;42.548;22.968;2022-07-29T05:49:07;94030.03;;;19.80;95.13
10518;BME280;5307;42.548;22.968;2022-07-29T05:51:34;94028.75;;;20.09;94.46
10518;BME280;5307;42.548;22.968;2022-07-29T05:54:01;94033.78;;;20.38;92.94
10518;BME280;5307;42.548;22.968;2022-07-29T05:56:29;94035.28;;;20.34;91.86
10518;BME280;5307;42.548;22.968;2022-07-29T05:58:57;94029.00;;;20.50;92.49
10518;BME280;5307;42.548;22.968;2022-07-29T06:01:24;94033.78;;;20.55;92.39
10518;BME280;5307;42.548;22.968;2022-07-29T06:03:51;94031.53;;;20.48;87.19
10518;BME280;5307;42.548;22.968;2022-07-29T06:06:18;94026.91;;;20.79;88.92
10518;BME280;5307;42.548;22.968;2022-07-29T06:08:46;94029.00;;;20.28;90.15
10518;BME280;5307;42.548;22.968;2022-07-29T06:11:12;94019.91;;;20.55;88.63
10518;BME280;5307;42.548;22.968;2022-07-29T06:13:39;94018.06;;;20.80;84.71
10518;BME280;5307;42.548;22.968;2022-07-29T06:16:08;94018.94;;;21.63;82.18
10518;BME280;5307;42.548;22.968;2022-07-29T06:18:34;94022.78;;;21.02;83.83
10518;BME280;5307;42.548;22.968;2022-07-29T06:21:01;94026.63;;;20.82;85.91
10518;BME280;5307;42.548;22.968;2022-07-29T06:23:34;94020.47;;;21.12;87.33
10518;BME280;5307;42.548;22.968;2022-07-29T06:26:00;94025.66;;;21.38;83.52
10518;BME280;5307;42.548;22.968;2022-07-29T06:28:27;94011.56;;;21.71;81.42
10518;BME280;5307;42.548;22.968;2022-07-29T06:30:54;94030.13;;;21.52;82.50
10518;BME280;5307;42.548;22.968;2022-07-29T06:33:22;94027.78;;;21.61;82.05
10518;BME280;5307;42.548;22.968;2022-07-29T06:35:49;94025.28;;;22.29;81.96
10518;BME280;5307;42.548;22.968;2022-07-29T06:38:16;94026.09;;;22.24;80.29
10518;BME280;5307;42.548;22.968;2022-07-29T06:40:43;94028.91;;;22.18;81.65
10518;BME280;5307;42.548;22.968;2022-07-29T06:43:32;94034.31;;;22.90;80.36
10518;BME280;5307;42.548;22.968;2022-07-29T06:46:02;94028.47;;;22.09;80.54
10518;BME280;5307;42.548;22.968;2022-07-29T06:48:31;94021.84;;;23.15;79.35
10518;BME280;5307;42.548;22.968;2022-07-29T06:50:59;94026.13;;;22.97;75.71
10518;BME280;5307;42.548;22.968;2022-07-29T06:53:26;94028.94;;;23.35;76.54
10518;BME280;5307;42.548;22.968;2022-07-29T06:55:53;94025.63;;;23.36;77.74
10518;BME280;5307;42.548;22.968;2022-07-29T06:58:20;94021.31;;;23.17;78.85
10518;BME280;5307;42.548;22.968;2022-07-29T07:00:48;94028.03;;;23.27;78.27
10518;BME280;5307;42.548;22.968;2022-07-29T07:03:15;94021.84;;;23.90;80.87
10518;BME280;5307;42.548;22.968;2022-07-29T07:05:44;94015.97;;;23.94;76.70
10518;BME280;5307;42.548;22.968;2022-07-29T07:08:11;94020.22;;;23.44;77.59
10518;BME280;5307;42.548;22.968;2022-07-29T07:10:39;94012.22;;;23.73;76.50
10518;BME280;5307;42.548;22.968;2022-07-29T07:13:06;94022.41;;;23.70;77.02
10518;BME280;5307;42.548;22.968;2022-07-29T07:15:32;94026.91;;;23.92;74.79
10518;BME280;5307;42.548;22.968;2022-07-29T07:17:59;94018.66;;;23.99;74.22
10518;BME280;5307;42.548;22.968;2022-07-29T07:20:26;94010.88;;;24.56;71.89
10518;BME280;5307;42.548;22.968;2022-07-29T07:22:54;94004.34;;;23.90;73.50
10518;BME280;5307;42.548;22.968;2022-07-29T07:25:21;94011.00;;;23.87;72.58
10518;BME280;5307;42.548;22.968;2022-07-29T07:27:48;94016.25;;;23.90;73.29
10518;BME280;5307;42.548;22.968;2022-07-29T07:30:15;94006.69;;;24.50;70.38
10518;BME280;5307;42.548;22.968;2022-07-29T07:32:42;94008.59;;;24.42;69.65
10518;BME280;5307;42.548;22.968;2022-07-29T07:35:10;94007.78;;;24.86;67.69
10518;BME280;5307;42.548;22.968;2022-07-29T07:37:37;94003.66;;;25.40;68.32
10518;BME280;5307;42.548;22.968;2022-07-29T07:40:09;94009.94;;;24.94;69.72
10518;BME280;5307;42.548;22.968;2022-07-29T07:42:36;94000.31;;;25.42;68.40
10518;BME280;5307;42.548;22.968;2022-07-29T07:45:04;94000.56;;;25.31;66.63
10518;BME280;5307;42.548;22.968;2022-07-29T07:47:31;93993.66;;;25.45;68.19
10518;BME280;5307;42.548;22.968;2022-07-29T07:49:58;94001.53;;;25.81;63.94
10518;BME280;5307;42.548;22.968;2022-07-29T07:52:25;93996.00;;;25.54;63.32
10518;BME280;5307;42.548;22.968;2022-07-29T07:54:52;94005.09;;;26.23;62.32
10518;BME280;5307;42.548;22.968;2022-07-29T07:57:20;93995.66;;;25.58;64.37
10518;BME280;5307;42.548;22.968;2022-07-29T07:59:47;94002.31;;;26.23;62.15
10518;BME280;5307;42.548;22.968;2022-07-29T08:02:14;94002.78;;;26.55;58.00
10518;BME280;5307;42.548;22.968;2022-07-29T08:04:41;94002.91;;;25.87;61.87
10518;BME280;5307;42.548;22.968;2022-07-29T08:07:08;94002.66;;;26.19;62.29
10518;BME280;5307;42.548;22.968;2022-07-29T08:09:36;94005.22;;;26.87;62.74
10518;BME280;5307;42.548;22.968;2022-07-29T08:12:03;94002.28;;;26.65;60.75
10518;BME280;5307;42.548;22.968;2022-07-29T08:14:32;94000.31;;;26.31;59.77
10518;BME280;5307;42.548;22.968;2022-07-29T08:16:59;93998.38;;;26.39;60.09
10518;BME280;5307;42.548;22.968;2022-07-29T08:19:26;94000.19;;;26.57;63.10
10518;BME280;5307;42.548;22.968;2022-07-29T08:21:53;93999.22;;;26.13;57.98
10518;BME280;5307;42.548;22.968;2022-07-29T08:24:21;93996.88;;;26.95;58.29
10518;BME280;5307;42.548;22.968;2022-07-29T08:27:05;93988.50;;;27.31;55.04
10518;BME280;5307;42.548;22.968;2022-07-29T08:29:33;93982.97;;;27.10;57.40
10518;BME280;5307;42.548;22.968;2022-07-29T08:32:01;93988.78;;;27.12;56.30
10518;BME280;5307;42.548;22.968;2022-07-29T08:34:28;93984.38;;;26.68;57.79
10518;BME280;5307;42.548;22.968;2022-07-29T08:36:56;93975.13;;;27.16;56.67
10518;BME280;5307;42.548;22.968;2022-07-29T08:42:31;93966.75;;;27.68;58.92
10518;BME280;5307;42.548;22.968;2022-07-29T08:44:59;93968.84;;;27.83;57.92
10518;BME280;5307;42.548;22.968;2022-07-29T08:47:27;93970.00;;;28.10;57.49
10518;BME280;5307;42.548;22.968;2022-07-29T08:49:54;93966.78;;;27.75;54.75
10518;BME280;5307;42.548;22.968;2022-07-29T08:52:21;93974.44;;;27.24;55.88
10518;BME280;5307;42.548;22.968;2022-07-29T08:54:50;93977.47;;;28.00;58.02
10518;BME280;5307;42.548;22.968;2022-07-29T08:57:19;93974.84;;;27.87;58.21
10518;BME280;5307;42.548;22.968;2022-07-29T08:59:50;93973.94;;;28.07;54.47
10518;BME280;5307;42.548;22.968;2022-07-29T09:02:21;93971.50;;;28.11;56.28
10518;BME280;5307;42.548;22.968;2022-07-29T09:04:49;93971.69;;;28.13;58.95
10518;BME280;5307;42.548;22.968;2022-07-29T09:07:17;93968.88;;;28.13;60.33
10518;BME280;5307;42.548;22.968;2022-07-29T09:09:44;93963.16;;;27.60;60.15
10518;BME280;5307;42.548;22.968;2022-07-29T09:12:12;93965.94;;;27.52;57.50
10518;BME280;5307;42.548;22.968;2022-07-29T09:14:39;93969.06;;;27.92;57.48
10518;BME280;5307;42.548;22.968;2022-07-29T09:17:07;93959.09;;;27.68;55.77
10518;BME280;5307;42.548;22.968;2022-07-29T09:19:36;93963.81;;;27.96;53.92
10518;BME280;5307;42.548;22.968;2022-07-29T09:22:05;93964.91;;;27.86;52.55
10518;BME280;5307;42.548;22.968;2022-07-29T09:24:40;93964.41;;;28.10;54.15
10518;BME280;5307;42.548;22.968;2022-07-29T09:27:09;93963.50;;;28.46;54.08
10518;BME280;5307;42.548;22.968;2022-07-29T09:29:36;93955.59;;;28.21;53.46
10518;BME280;5307;42.548;22.968;2022-07-29T09:32:09;93963.66;;;28.17;54.85
10518;BME280;5307;42.548;22.968;2022-07-29T09:34:38;93960.63;;;28.00;54.36
10518;BME280;5307;42.548;22.968;2022-07-29T09:37:05;93964.06;;;28.29;57.87
10518;BME280;5307;42.548;22.968;2022-07-29T09:39:37;93963.69;;;28.32;56.02
10518;BME280;5307;42.548;22.968;2022-07-29T09:42:10;93944.56;;;28.08;55.63
10518;BME280;5307;42.548;22.968;2022-07-29T09:44:49;93943.44;;;28.42;54.87
10518;BME280;5307;42.548;22.968;2022-07-29T09:47:17;93949.06;;;28.42;55.86
10518;BME280;5307;42.548;22.968;2022-07-29T09:49:53;93951.47;;;28.07;53.32
10518;BME280;5307;42.548;22.968;2022-07-29T09:52:23;93954.28;;;28.15;53.83
10518;BME280;5307;42.548;22.968;2022-07-29T09:54:51;93934.09;;;28.39;54.41
10518;BME280;5307;42.548;22.968;2022-07-29T09:57:24;93933.72;;;28.43;53.04
10518;BME280;5307;42.548;22.968;2022-07-29T09:59:59;93926.81;;;28.44;51.82
10518;BME280;5307;42.548;22.968;2022-07-29T10:02:31;93932.63;;;28.30;51.89
10518;BME280;5307;42.548;22.968;2022-07-29T10:05:01;93931.44;;;28.72;54.98
10518;BME280;5307;42.548;22.968;2022-07-29T10:07:43;93916.63;;;28.63;53.23
10518;BME280;5307;42.548;22.968;2022-07-29T10:10:10;93918.59;;;29.09;52.56
10518;BME280;5307;42.548;22.968;2022-07-29T10:12:49;93914.44;;;29.17;52.20
10518;BME280;5307;42.548;22.968;2022-07-29T10:15:16;93908.78;;;28.54;51.77
10518;BME280;5307;42.548;22.968;2022-07-29T10:17:44;93907.34;;;29.09;51.56
10518;BME280;5307;42.548;22.968;2022-07-29T10:20:13;93902.91;;;29.38;51.90
10518;BME280;5307;42.548;22.968;2022-07-29T10:22:40;93908.50;;;29.46;50.04
10518;BME280;5307;42.548;22.968;2022-07-29T10:25:09;93894.66;;;29.73;50.80
10518;BME280;5307;42.548;22.968;2022-07-29T10:27:36;93901.44;;;29.70;48.92
10518;BME280;5307;42.548;22.968;2022-07-29T10:30:04;93897.22;;;29.86;48.03
10518;BME280;5307;42.548;22.968;2022-07-29T10:33:06;93887.72;;;29.74;48.02
10518;BME280;5307;42.548;22.968;2022-07-29T10:35:47;93886.41;;;30.00;46.46
10518;BME280;5307;42.548;22.968;2022-07-29T10:38:48;93882.16;;;29.91;48.43
10518;BME280;5307;42.548;22.968;2022-07-29T10:41:47;93884.91;;;29.99;47.33
10518;BME280;5307;42.548;22.968;2022-07-29T10:44:19;93878.91;;;29.70;45.07
10518;BME280;5307;42.548;22.968;2022-07-29T10:46:46;93880.31;;;29.86;47.96
10518;BME280;5307;42.548;22.968;2022-07-29T10:49:16;93865.25;;;29.26;44.13
10518;BME280;5307;42.548;22.968;2022-07-29T10:51:55;93872.69;;;29.46;43.69
10518;BME280;5307;42.548;22.968;2022-07-29T10:54:45;93858.50;;;29.62;46.18
10518;BME280;5307;42.548;22.968;2022-07-29T10:57:18;93866.16;;;29.36;44.24
10518;BME280;5307;42.548;22.968;2022-07-29T10:59:46;93858.31;;;29.27;43.23
10518;BME280;5307;42.548;22.968;2022-07-29T11:02:42;93859.53;;;29.41;45.65
10518;BME280;5307;42.548;22.968;2022-07-29T11:05:11;93862.25;;;29.89;42.83
10518;BME280;5307;42.548;22.968;2022-07-29T11:08:22;93853.00;;;29.96;45.33
10518;BME280;5307;42.548;22.968;2022-07-29T11:13:48;93845.28;;;30.22;46.22
10518;BME280;5307;42.548;22.968;2022-07-29T11:16:18;93843.56;;;30.01;46.90
10518;BME280;5307;42.548;22.968;2022-07-29T11:19:20;93846.38;;;30.01;45.88
10518;BME280;5307;42.548;22.968;2022-07-29T11:21:48;93845.28;;;29.47;45.78
10518;BME280;5307;42.548;22.968;2022-07-29T11:24:19;93838.91;;;29.96;47.43
10518;BME280;5307;42.548;22.968;2022-07-29T11:27:11;93837.44;;;29.38;43.00
10518;BME280;5307;42.548;22.968;2022-07-29T11:29:40;93839.56;;;29.62;47.21
10518;BME280;5307;42.548;22.968;2022-07-29T11:32:17;93839.25;;;30.00;45.62
10518;BME280;5307;42.548;22.968;2022-07-29T11:34:46;93829.38;;;29.67;41.65
10518;BME280;5307;42.548;22.968;2022-07-29T11:37:29;93834.50;;;29.28;42.79
10518;BME280;5307;42.548;22.968;2022-07-29T11:40:26;93820.25;;;29.59;42.36
10518;BME280;5307;42.548;22.968;2022-07-29T11:42:52;93827.56;;;29.29;39.59
10518;BME280;5307;42.548;22.968;2022-07-29T11:45:22;93825.19;;;29.10;39.42
10518;BME280;5307;42.548;22.968;2022-07-29T11:47:55;93818.41;;;29.53;44.13
10518;BME280;5307;42.548;22.968;2022-07-29T11:50:32;93817.25;;;29.24;41.81
10518;BME280;5307;42.548;22.968;2022-07-29T11:53:02;93821.34;;;29.31;41.38
10518;BME280;5307;42.548;22.968;2022-07-29T11:55:31;93813.59;;;29.46;41.97
10518;BME280;5307;42.548;22.968;2022-07-29T11:58:01;93822.53;;;29.52;46.19
10518;BME280;5307;42.548;22.968;2022-07-29T12:00:30;93817.16;;;29.72;46.47
10518;BME280;5307;42.548;22.968;2022-07-29T12:02:58;93820.47;;;29.78;44.88
10518;BME280;5307;42.548;22.968;2022-07-29T12:05:33;93816.69;;;29.83;41.24
10518;BME280;5307;42.548;22.968;2022-07-29T12:08:08;93812.78;;;29.78;42.27
10518;BME280;5307;42.548;22.968;2022-07-29T12:10:37;93813.53;;;29.79;42.23
10518;BME280;5307;42.548;22.968;2022-07-29T12:13:04;93814.06;;;29.60;40.80
10518;BME280;5307;42.548;22.968;2022-07-29T12:15:31;93814.72;;;29.68;43.68
10518;BME280;5307;42.548;22.968;2022-07-29T12:17:58;93810.81;;;29.64;41.77
10518;BME280;5307;42.548;22.968;2022-07-29T12:20:26;93812.56;;;29.59;42.24
10518;BME280;5307;42.548;22.968;2022-07-29T12:22:54;93804.38;;;29.46;41.14
10518;BME280;5307;42.548;22.968;2022-07-29T12:25:22;93808.00;;;29.64;40.86
10518;BME280;5307;42.548;22.968;2022-07-29T12:28:01;93802.00;;;29.35;39.43
10518;BME280;5307;42.548;22.968;2022-07-29T12:30:35;93801.44;;;29.36;40.37
10518;BME280;5307;42.548;22.968;2022-07-29T12:33:11;93787.69;;;29.40;42.55
10518;BME280;5307;42.548;22.968;2022-07-29T12:35:39;93795.13;;;29.78;41.76
10518;BME280;5307;42.548;22.968;2022-07-29T12:38:06;93791.63;;;29.70;39.98
10518;BME280;5307;42.548;22.968;2022-07-29T12:40:33;93786.47;;;29.59;40.60
10518;BME280;5307;42.548;22.968;2022-07-29T12:43:08;93779.00;;;29.78;41.61
10518;BME280;5307;42.548;22.968;2022-07-29T12:45:36;93775.28;;;29.51;40.35
10518;BME280;5307;42.548;22.968;2022-07-29T12:48:04;93770.22;;;29.49;39.59
10518;BME280;5307;42.548;22.968;2022-07-29T12:50:35;93770.97;;;29.50;38.58
10518;BME280;5307;42.548;22.968;2022-07-29T12:53:12;93770.09;;;29.65;38.57
10518;BME280;5307;42.548;22.968;2022-07-29T12:55:43;93772.56;;;29.61;41.93
10518;BME280;5307;42.548;22.968;2022-07-29T12:58:29;93762.19;;;29.88;42.14
10518;BME280;5307;42.548;22.968;2022-07-29T13:01:05;93752.41;;;29.72;38.64
10518;BME280;5307;42.548;22.968;2022-07-29T13:03:45;93758.69;;;29.80;42.08
10518;BME280;5307;42.548;22.968;2022-07-29T13:06:33;93760.16;;;29.64;39.33
10518;BME280;5307;42.548;22.968;2022-07-29T13:09:06;93754.28;;;29.69;39.48
10518;BME280;5307;42.548;22.968;2022-07-29T13:11:36;93754.97;;;29.77;38.13
10518;BME280;5307;42.548;22.968;2022-07-29T13:14:05;93753.09;;;29.97;36.76
10518;BME280;5307;42.548;22.968;2022-07-29T13:16:32;93750.50;;;29.74;35.27
10518;BME280;5307;42.548;22.968;2022-07-29T13:19:10;93747.00;;;29.66;35.71